Eula B. Devall — WDB6046 — position and weather

sailwx.info

Track history (hours):
 
Tides and Currents Weather Stations Pressure Air Temp Water Temp Dewpoint Dewpoint Depression Visibility Wind Speed Wind Dir Waves Ship Positions

Eula B. Devall

Owner: Eula B. Devall, Inc., Sulphur, LA. More information available from US FCC via Universal Licensing System and Coast Guard Vessel Documentation Center.

Last reported at 2017-Dec-13 11:46 UTC. Time now 2017-Dec-18 05:18 UTC.
Position N 29°49' W 091°49'.

Length 22 m; draft 2.9 m.

Type: Wing in ground effect craft. MMSI: 366916840.

Date/timePositionNaut miles runAvg speedWind from/ knotsBaromVisibWave heightAir tempDewpointWater temp
2017-Dec-13 11:46N 29°49' W 091°49'5 4.2
2017-Dec-13 10:33N 29°51' W 091°55'0 5.4
2017-Dec-13 10:30N 29°51' W 091°55'3 5.4
2017-Dec-13 10:00N 29°50' W 091°58'3 5.3
2017-Dec-13 09:31N 29°49' W 092°01'3 5.4
2017-Dec-13 09:01N 29°49' W 092°04'3 5.5
2017-Dec-13 08:31N 29°48' W 092°07'3 5.4
2017-Dec-13 08:01N 29°47' W 092°10'2 3.4
2017-Dec-13 07:31N 29°47' W 092°12'2 4.2
2017-Dec-13 07:01N 29°48' W 092°14'0 0.9
2017-Dec-13 06:31N 29°48' W 092°14'0 0.5
2017-Dec-13 06:00N 29°48' W 092°15'2 4.3
2017-Dec-13 05:31N 29°49' W 092°17'2 4.0
2017-Dec-13 05:01N 29°50' W 092°19'2 4.9
2017-Dec-13 04:30N 29°51' W 092°21'3 2.5
2017-Dec-13 03:25N 29°53' W 092°23'3 4.3
2017-Dec-13 02:48N 29°53' W 092°26'32 3.9
2017-Dec-12 18:32N 29°56' W 093°03'0 4.2
2017-Dec-12 18:29N 29°56' W 093°04'2 4.3
2017-Dec-12 18:00N 29°56' W 093°06'2 4.6
2017-Dec-12 17:30N 29°56' W 093°09'2 4.1
2017-Dec-12 17:01N 29°57' W 093°11'2 3.9
2017-Dec-12 16:31N 29°59' W 093°12'2 4.5
2017-Dec-12 16:01N 30°01' W 093°14'2 3.6
2017-Dec-12 15:30N 30°02' W 093°15'2 3.3
2017-Dec-12 15:00N 30°03' W 093°16'1 2.3
2017-Dec-12 14:31N 30°04' W 093°16'1 2.8
2017-Dec-12 14:00N 30°05' W 093°18'1 1.5
2017-Dec-12 13:31N 30°06' W 093°18'0 0.2
2017-Dec-12 13:00N 30°06' W 093°18'0 0.0
2017-Dec-12 12:31N 30°06' W 093°18'0 0.0
2017-Dec-12 12:00N 30°06' W 093°18'1 1.7
2017-Dec-12 11:10N 30°05' W 093°20'1 4.3
2017-Dec-12 11:00N 30°05' W 093°20'2 3.4
2017-Dec-12 10:30N 30°04' W 093°22'1 2.6
2017-Dec-12 10:00N 30°04' W 093°23'6 5.1
2017-Dec-12 08:46N 30°04' W 093°30'41 4.8
2017-Dec-12 00:06N 29°41' W 094°10'35 4.0
2017-Dec-11 15:20N 29°24' W 094°45'1 3.6
2017-Dec-11 15:00N 29°23' W 094°46'2 3.8
2017-Dec-11 14:30N 29°22' W 094°48'3 5.0
2017-Dec-11 13:58N 29°24' W 094°49'2 5.2
2017-Dec-11 13:30N 29°27' W 094°50'3 6.7
2017-Dec-11 13:00N 29°30' W 094°52'3 6.0
2017-Dec-11 12:31N 29°32' W 094°54'3 5.9
2017-Dec-11 12:01N 29°35' W 094°56'3 5.8
2017-Dec-11 11:30N 29°37' W 094°57'3 5.8
2017-Dec-11 11:00N 29°40' W 094°59'3 5.4
2017-Dec-11 10:30N 29°42' W 095°00'2 4.9
2017-Dec-11 10:00N 29°44' W 095°02'3 5.9
2017-Dec-11 09:30N 29°46' W 095°05'1 1.3
2017-Dec-11 08:59N 29°47' W 095°05'0 0.1
2017-Dec-11 08:31N 29°46' W 095°05'0 0.0
2017-Dec-11 08:00N 29°46' W 095°05'0 0.0
2017-Dec-11 07:30N 29°47' W 095°05'0 0.0
2017-Dec-11 07:01N 29°47' W 095°05'0 0.0
2017-Dec-11 06:30N 29°46' W 095°05'0 0.0
2017-Dec-11 06:01N 29°46' W 095°05'0 0.0
2017-Dec-11 05:30N 29°46' W 095°05'0 0.0
2017-Dec-11 05:00N 29°46' W 095°05'0 0.1
2017-Dec-11 04:30N 29°46' W 095°05'1 1.6
2017-Dec-11 04:00N 29°46' W 095°05'3 6.7
2017-Dec-11 03:30N 29°44' W 095°09'3 6.0
2017-Dec-11 03:01N 29°44' W 095°12'3 5.6
2017-Dec-11 02:31N 29°43' W 095°15'0 0.2
2017-Dec-11 01:59N 29°43' W 095°15'0 0.0
2017-Dec-11 01:28N 29°43' W 095°15'0 0.0
2017-Dec-11 01:00N 29°43' W 095°15'0 0.0
2017-Dec-11 00:30N 29°43' W 095°15'0 0.0
2017-Dec-10 23:59N 29°43' W 095°15'0 0.0
2017-Dec-10 23:29N 29°43' W 095°15'0 0.0
2017-Dec-10 22:58N 29°43' W 095°15'0 0.0
2017-Dec-10 22:28N 29°43' W 095°15'0 0.0
2017-Dec-10 22:00N 29°43' W 095°15'0 0.0
2017-Dec-10 21:29N 29°43' W 095°15'0 0.0
2017-Dec-10 21:00N 29°43' W 095°15'0 0.0
2017-Dec-10 20:20N 29°43' W 095°15'0 0.0
2017-Dec-10 20:00N 29°43' W 095°15'0 0.0
2017-Dec-10 19:28N 29°43' W 095°15'0 0.0
2017-Dec-10 18:49N 29°43' W 095°15'0 0.0
2017-Dec-10 18:30N 29°43' W 095°15'0 0.0
2017-Dec-10 17:57N 29°43' W 095°15'0 0.0
2017-Dec-10 17:26N 29°43' W 095°15'0 0.0
2017-Dec-10 16:57N 29°43' W 095°15'0 0.0
2017-Dec-10 16:30N 29°43' W 095°15'0 0.0
2017-Dec-10 15:58N 29°43' W 095°15'0 0.0
2017-Dec-10 15:27N 29°43' W 095°15'0 0.0
2017-Dec-10 15:00N 29°43' W 095°15'0 0.0
2017-Dec-10 14:30N 29°43' W 095°15'0 0.0
2017-Dec-10 14:00N 29°43' W 095°15'0 0.0
2017-Dec-10 13:26N 29°43' W 095°15'0 0.0
2017-Dec-10 12:57N 29°43' W 095°15'0 0.0
2017-Dec-10 06:59N 29°43' W 095°15'0 0.0
2017-Dec-10 05:56N 29°43' W 095°15'0 0.0
2017-Dec-10 05:30N 29°43' W 095°15'0 0.0
2017-Dec-10 04:58N 29°43' W 095°15'0 0.0
2017-Dec-10 04:10N 29°43' W 095°15'0 0.0
2017-Dec-10 03:58N 29°43' W 095°15'0 0.0
2017-Dec-10 03:12N 29°43' W 095°15'0 0.0
2017-Dec-10 02:37N 29°43' W 095°15'0 0.0
2017-Dec-10 02:29N 29°43' W 095°15'0 0.0
2017-Dec-10 01:14N 29°43' W 095°15'0 0.0
2017-Dec-10 00:48N 29°43' W 095°15'0 0.0
2017-Dec-09 23:57N 29°43' W 095°15'0 0.0
2017-Dec-09 22:17N 29°43' W 095°15'0 0.7
2017-Dec-09 21:58N 29°43' W 095°15'2 5.1
2017-Dec-09 21:29N 29°44' W 095°12'3 5.5
2017-Dec-09 21:00N 29°44' W 095°09'4 7.2
2017-Dec-09 20:29N 29°46' W 095°05'1 1.1
2017-Dec-09 19:47N 29°46' W 095°06'0 1.4
2017-Dec-09 19:29N 29°46' W 095°06'2 3.2
2017-Dec-09 19:00N 29°45' W 095°04'2 4.8
2017-Dec-09 18:30N 29°44' W 095°02'2 4.3
2017-Dec-09 18:00N 29°42' W 095°01'2 4.6
2017-Dec-09 17:30N 29°41' W 094°59'3 5.3
2017-Dec-09 17:00N 29°38' W 094°58'3 5.3
2017-Dec-09 16:30N 29°36' W 094°57'3 5.3
2017-Dec-09 16:00N 29°33' W 094°55'3 5.3
2017-Dec-09 15:30N 29°31' W 094°53'3 5.0
2017-Dec-09 14:59N 29°29' W 094°52'3 5.4
2017-Dec-09 14:27N 29°26' W 094°50'3 5.3
2017-Dec-09 13:58N 29°24' W 094°49'71 4.3
2017-Dec-08 21:22N 30°04' W 093°42'2 6.2
2017-Dec-08 21:00N 30°04' W 093°39'3 5.8
2017-Dec-08 20:30N 30°04' W 093°36'3 5.2
2017-Dec-08 20:00N 30°04' W 093°33'3 5.1
2017-Dec-08 19:30N 30°04' W 093°30'3 5.1
2017-Dec-08 19:00N 30°04' W 093°27'3 5.1
2017-Dec-08 18:31N 30°04' W 093°24'7 1.1
2017-Dec-08 12:30N 30°03' W 093°16'0 0.0
2017-Dec-08 10:38N 30°03' W 093°16'0 0.0
2017-Dec-08 10:30N 30°03' W 093°16'0 0.0
2017-Dec-08 10:00N 30°03' W 093°16'0 0.0
2017-Dec-08 09:30N 30°03' W 093°16'0 0.3
2017-Dec-08 09:00N 30°03' W 093°16'0 0.2
2017-Dec-08 08:30N 30°03' W 093°16'0 0.4
2017-Dec-08 08:00N 30°03' W 093°16'1 2.3
2017-Dec-08 07:30N 30°02' W 093°15'1 2.3
2017-Dec-08 07:00N 30°01' W 093°14'2 3.1
2017-Dec-08 06:30N 30°00' W 093°13'1 1.0
2017-Dec-08 06:00N 29°60' W 093°13'1 1.6
2017-Dec-08 05:30N 29°59' W 093°12'3 5.0
2017-Dec-08 05:00N 29°57' W 093°11'2 4.6
2017-Dec-08 04:30N 29°56' W 093°08'41 4.8
2017-Dec-07 19:59N 29°51' W 092°22'2 4.6
2017-Dec-07 19:30N 29°50' W 092°19'2 4.5
2017-Dec-07 19:00N 29°49' W 092°17'2 4.7
2017-Dec-07 18:30N 29°48' W 092°15'2 4.7
2017-Dec-07 18:00N 29°47' W 092°12'2 4.2
2017-Dec-07 17:30N 29°47' W 092°10'2 4.9
2017-Dec-07 17:00N 29°47' W 092°07'2 5.0
2017-Dec-07 16:30N 29°48' W 092°05'2 4.7
2017-Dec-07 16:00N 29°49' W 092°02'2 3.8
2017-Dec-07 15:30N 29°50' W 091°60'2 4.8
2017-Dec-07 15:00N 29°50' W 091°57'53 4.4
2017-Dec-07 02:58N 29°36' W 090°58'3 5.5
2017-Dec-07 02:29N 29°34' W 090°56'3 5.8
2017-Dec-07 01:57N 29°32' W 090°53'2 5.5
2017-Dec-07 01:30N 29°32' W 090°50'3 5.5
2017-Dec-07 01:00N 29°32' W 090°47'2 4.3
2017-Dec-07 00:31N 29°33' W 090°45'2 3.8
2017-Dec-07 00:01N 29°34' W 090°43'1 3.0
2017-Dec-06 23:31N 29°36' W 090°43'2 3.1
2017-Dec-06 23:01N 29°36' W 090°41'3 5.2
2017-Dec-06 22:31N 29°35' W 090°38'2 4.6
2017-Dec-06 22:00N 29°35' W 090°36'3 5.2
2017-Dec-06 21:31N 29°34' W 090°33'3 5.6
2017-Dec-06 21:00N 29°34' W 090°30'  
Track history (hours):
 
Tides and Currents Weather Stations Pressure Air Temp Water Temp Dewpoint Dewpoint Depression Visibility Wind Speed Wind Dir Waves Ship Positions

Eula B. Devall

Owner: Eula B. Devall, Inc., Sulphur, LA. More information available from US FCC via Universal Licensing System and Coast Guard Vessel Documentation Center.

Last reported at 2017-Dec-13 11:46 UTC. Time now 2017-Dec-18 05:18 UTC.
Position N 29°49' W 091°49'.

Length 22 m; draft 2.9 m.

Type: Wing in ground effect craft. MMSI: 366916840.

Date/timePositionNaut miles runAvg speedWind from/ knotsBaromVisibWave heightAir tempDewpointWater temp
2017-Dec-13 11:46N 29°49' W 091°49'5 4.2
2017-Dec-13 10:33N 29°51' W 091°55'0 5.4
2017-Dec-13 10:30N 29°51' W 091°55'3 5.4
2017-Dec-13 10:00N 29°50' W 091°58'3 5.3
2017-Dec-13 09:31N 29°49' W 092°01'3 5.4
2017-Dec-13 09:01N 29°49' W 092°04'3 5.5
2017-Dec-13 08:31N 29°48' W 092°07'3 5.4
2017-Dec-13 08:01N 29°47' W 092°10'2 3.4
2017-Dec-13 07:31N 29°47' W 092°12'2 4.2
2017-Dec-13 07:01N 29°48' W 092°14'0 0.9
2017-Dec-13 06:31N 29°48' W 092°14'0 0.5
2017-Dec-13 06:00N 29°48' W 092°15'2 4.3
2017-Dec-13 05:31N 29°49' W 092°17'2 4.0
2017-Dec-13 05:01N 29°50' W 092°19'2 4.9
2017-Dec-13 04:30N 29°51' W 092°21'3 2.5
2017-Dec-13 03:25N 29°53' W 092°23'3 4.3
2017-Dec-13 02:48N 29°53' W 092°26'32 3.9
2017-Dec-12 18:32N 29°56' W 093°03'0 4.2
2017-Dec-12 18:29N 29°56' W 093°04'2 4.3
2017-Dec-12 18:00N 29°56' W 093°06'2 4.6
2017-Dec-12 17:30N 29°56' W 093°09'2 4.1
2017-Dec-12 17:01N 29°57' W 093°11'2 3.9
2017-Dec-12 16:31N 29°59' W 093°12'2 4.5
2017-Dec-12 16:01N 30°01' W 093°14'2 3.6
2017-Dec-12 15:30N 30°02' W 093°15'2 3.3
2017-Dec-12 15:00N 30°03' W 093°16'1 2.3
2017-Dec-12 14:31N 30°04' W 093°16'1 2.8
2017-Dec-12 14:00N 30°05' W 093°18'1 1.5
2017-Dec-12 13:31N 30°06' W 093°18'0 0.2
2017-Dec-12 13:00N 30°06' W 093°18'0 0.0
2017-Dec-12 12:31N 30°06' W 093°18'0 0.0
2017-Dec-12 12:00N 30°06' W 093°18'1 1.7
2017-Dec-12 11:10N 30°05' W 093°20'1 4.3
2017-Dec-12 11:00N 30°05' W 093°20'2 3.4
2017-Dec-12 10:30N 30°04' W 093°22'1 2.6
2017-Dec-12 10:00N 30°04' W 093°23'6 5.1
2017-Dec-12 08:46N 30°04' W 093°30'41 4.8
2017-Dec-12 00:06N 29°41' W 094°10'35 4.0
2017-Dec-11 15:20N 29°24' W 094°45'1 3.6
2017-Dec-11 15:00N 29°23' W 094°46'2 3.8
2017-Dec-11 14:30N 29°22' W 094°48'3 5.0
2017-Dec-11 13:58N 29°24' W 094°49'2 5.2
2017-Dec-11 13:30N 29°27' W 094°50'3 6.7
2017-Dec-11 13:00N 29°30' W 094°52'3 6.0
2017-Dec-11 12:31N 29°32' W 094°54'3 5.9
2017-Dec-11 12:01N 29°35' W 094°56'3 5.8
2017-Dec-11 11:30N 29°37' W 094°57'3 5.8
2017-Dec-11 11:00N 29°40' W 094°59'3 5.4
2017-Dec-11 10:30N 29°42' W 095°00'2 4.9
2017-Dec-11 10:00N 29°44' W 095°02'3 5.9
2017-Dec-11 09:30N 29°46' W 095°05'1 1.3
2017-Dec-11 08:59N 29°47' W 095°05'0 0.1
2017-Dec-11 08:31N 29°46' W 095°05'0 0.0
2017-Dec-11 08:00N 29°46' W 095°05'0 0.0
2017-Dec-11 07:30N 29°47' W 095°05'0 0.0
2017-Dec-11 07:01N 29°47' W 095°05'0 0.0
2017-Dec-11 06:30N 29°46' W 095°05'0 0.0
2017-Dec-11 06:01N 29°46' W 095°05'0 0.0
2017-Dec-11 05:30N 29°46' W 095°05'0 0.0
2017-Dec-11 05:00N 29°46' W 095°05'0 0.1
2017-Dec-11 04:30N 29°46' W 095°05'1 1.6
2017-Dec-11 04:00N 29°46' W 095°05'3 6.7
2017-Dec-11 03:30N 29°44' W 095°09'3 6.0
2017-Dec-11 03:01N 29°44' W 095°12'3 5.6
2017-Dec-11 02:31N 29°43' W 095°15'0 0.2
2017-Dec-11 01:59N 29°43' W 095°15'0 0.0
2017-Dec-11 01:28N 29°43' W 095°15'0 0.0
2017-Dec-11 01:00N 29°43' W 095°15'0 0.0
2017-Dec-11 00:30N 29°43' W 095°15'0 0.0
2017-Dec-10 23:59N 29°43' W 095°15'0 0.0
2017-Dec-10 23:29N 29°43' W 095°15'0 0.0
2017-Dec-10 22:58N 29°43' W 095°15'0 0.0
2017-Dec-10 22:28N 29°43' W 095°15'0 0.0
2017-Dec-10 22:00N 29°43' W 095°15'0 0.0
2017-Dec-10 21:29N 29°43' W 095°15'0 0.0
2017-Dec-10 21:00N 29°43' W 095°15'0 0.0
2017-Dec-10 20:20N 29°43' W 095°15'0 0.0
2017-Dec-10 20:00N 29°43' W 095°15'0 0.0
2017-Dec-10 19:28N 29°43' W 095°15'0 0.0
2017-Dec-10 18:49N 29°43' W 095°15'0 0.0
2017-Dec-10 18:30N 29°43' W 095°15'0 0.0
2017-Dec-10 17:57N 29°43' W 095°15'0 0.0
2017-Dec-10 17:26N 29°43' W 095°15'0 0.0
2017-Dec-10 16:57N 29°43' W 095°15'0 0.0
2017-Dec-10 16:30N 29°43' W 095°15'0 0.0
2017-Dec-10 15:58N 29°43' W 095°15'0 0.0
2017-Dec-10 15:27N 29°43' W 095°15'0 0.0
2017-Dec-10 15:00N 29°43' W 095°15'0 0.0
2017-Dec-10 14:30N 29°43' W 095°15'0 0.0
2017-Dec-10 14:00N 29°43' W 095°15'0 0.0
2017-Dec-10 13:26N 29°43' W 095°15'0 0.0
2017-Dec-10 12:57N 29°43' W 095°15'0 0.0
2017-Dec-10 06:59N 29°43' W 095°15'0 0.0
2017-Dec-10 05:56N 29°43' W 095°15'0 0.0
2017-Dec-10 05:30N 29°43' W 095°15'0 0.0
2017-Dec-10 04:58N 29°43' W 095°15'0 0.0
2017-Dec-10 04:10N 29°43' W 095°15'0 0.0
2017-Dec-10 03:58N 29°43' W 095°15'0 0.0
2017-Dec-10 03:12N 29°43' W 095°15'0 0.0
2017-Dec-10 02:37N 29°43' W 095°15'0 0.0
2017-Dec-10 02:29N 29°43' W 095°15'0 0.0
2017-Dec-10 01:14N 29°43' W 095°15'0 0.0
2017-Dec-10 00:48N 29°43' W 095°15'0 0.0
2017-Dec-09 23:57N 29°43' W 095°15'0 0.0
2017-Dec-09 22:17N 29°43' W 095°15'0 0.7
2017-Dec-09 21:58N 29°43' W 095°15'2 5.1
2017-Dec-09 21:29N 29°44' W 095°12'3 5.5
2017-Dec-09 21:00N 29°44' W 095°09'4 7.2
2017-Dec-09 20:29N 29°46' W 095°05'1 1.1
2017-Dec-09 19:47N 29°46' W 095°06'0 1.4
2017-Dec-09 19:29N 29°46' W 095°06'2 3.2
2017-Dec-09 19:00N 29°45' W 095°04'2 4.8
2017-Dec-09 18:30N 29°44' W 095°02'2 4.3
2017-Dec-09 18:00N 29°42' W 095°01'2 4.6
2017-Dec-09 17:30N 29°41' W 094°59'3 5.3
2017-Dec-09 17:00N 29°38' W 094°58'3 5.3
2017-Dec-09 16:30N 29°36' W 094°57'3 5.3
2017-Dec-09 16:00N 29°33' W 094°55'3 5.3
2017-Dec-09 15:30N 29°31' W 094°53'3 5.0
2017-Dec-09 14:59N 29°29' W 094°52'3 5.4
2017-Dec-09 14:27N 29°26' W 094°50'3 5.3
2017-Dec-09 13:58N 29°24' W 094°49'71 4.3
2017-Dec-08 21:22N 30°04' W 093°42'2 6.2
2017-Dec-08 21:00N 30°04' W 093°39'3 5.8
2017-Dec-08 20:30N 30°04' W 093°36'3 5.2
2017-Dec-08 20:00N 30°04' W 093°33'3 5.1
2017-Dec-08 19:30N 30°04' W 093°30'3 5.1
2017-Dec-08 19:00N 30°04' W 093°27'3 5.1
2017-Dec-08 18:31N 30°04' W 093°24'7 1.1
2017-Dec-08 12:30N 30°03' W 093°16'0 0.0
2017-Dec-08 10:38N 30°03' W 093°16'0 0.0
2017-Dec-08 10:30N 30°03' W 093°16'0 0.0
2017-Dec-08 10:00N 30°03' W 093°16'0 0.0
2017-Dec-08 09:30N 30°03' W 093°16'0 0.3
2017-Dec-08 09:00N 30°03' W 093°16'0 0.2
2017-Dec-08 08:30N 30°03' W 093°16'0 0.4
2017-Dec-08 08:00N 30°03' W 093°16'1 2.3
2017-Dec-08 07:30N 30°02' W 093°15'1 2.3
2017-Dec-08 07:00N 30°01' W 093°14'2 3.1
2017-Dec-08 06:30N 30°00' W 093°13'1 1.0
2017-Dec-08 06:00N 29°60' W 093°13'1 1.6
2017-Dec-08 05:30N 29°59' W 093°12'3 5.0
2017-Dec-08 05:00N 29°57' W 093°11'2 4.6
2017-Dec-08 04:30N 29°56' W 093°08'41 4.8
2017-Dec-07 19:59N 29°51' W 092°22'2 4.6
2017-Dec-07 19:30N 29°50' W 092°19'2 4.5
2017-Dec-07 19:00N 29°49' W 092°17'2 4.7
2017-Dec-07 18:30N 29°48' W 092°15'2 4.7
2017-Dec-07 18:00N 29°47' W 092°12'2 4.2
2017-Dec-07 17:30N 29°47' W 092°10'2 4.9
2017-Dec-07 17:00N 29°47' W 092°07'2 5.0
2017-Dec-07 16:30N 29°48' W 092°05'2 4.7
2017-Dec-07 16:00N 29°49' W 092°02'2 3.8
2017-Dec-07 15:30N 29°50' W 091°60'2 4.8
2017-Dec-07 15:00N 29°50' W 091°57'53 4.4
2017-Dec-07 02:58N 29°36' W 090°58'3 5.5
2017-Dec-07 02:29N 29°34' W 090°56'3 5.8
2017-Dec-07 01:57N 29°32' W 090°53'2 5.5
2017-Dec-07 01:30N 29°32' W 090°50'3 5.5
2017-Dec-07 01:00N 29°32' W 090°47'2 4.3
2017-Dec-07 00:31N 29°33' W 090°45'2 3.8
2017-Dec-07 00:01N 29°34' W 090°43'1 3.0
2017-Dec-06 23:31N 29°36' W 090°43'2 3.1
2017-Dec-06 23:01N 29°36' W 090°41'3 5.2
2017-Dec-06 22:31N 29°35' W 090°38'2 4.6
2017-Dec-06 22:00N 29°35' W 090°36'3 5.2
2017-Dec-06 21:31N 29°34' W 090°33'3 5.6
2017-Dec-06 21:00N 29°34' W 090°30'  

Dump ship's entire track history